createdAt,value
2022-11-22T00:02:59.900Z,7.93
2022-11-22T00:08:01.847Z,8.80
2022-11-22T00:13:04.925Z,8.10
2022-11-22T00:18:06.905Z,7.88
2022-11-22T00:23:08.612Z,8.30
2022-11-22T00:28:10.527Z,7.97
2022-11-22T00:33:12.381Z,7.32
2022-11-22T00:38:14.268Z,7.72
2022-11-22T00:43:16.065Z,8.15
2022-11-22T00:48:18.359Z,8.45
2022-11-22T00:53:20.417Z,7.88
2022-11-22T00:58:22.541Z,7.97
2022-11-22T01:03:25.173Z,7.88
2022-11-22T01:08:27.390Z,7.43
2022-11-22T01:13:29.920Z,7.13
2022-11-22T01:18:32.156Z,6.93
2022-11-22T01:23:35.732Z,8.52
2022-11-22T01:28:37.581Z,7.10
2022-11-22T01:33:39.313Z,6.90
2022-11-22T01:38:41.137Z,7.50
2022-11-22T01:43:43.245Z,7.15
2022-11-22T01:48:48.117Z,8.25
2022-11-22T01:53:51.454Z,7.35
2022-11-22T01:59:00.227Z,8.25
2022-11-22T02:04:04.748Z,7.43
2022-11-22T02:09:14.665Z,7.70
2022-11-22T02:14:19.660Z,7.82
2022-11-22T02:19:38.221Z,7.03
2022-11-22T02:24:47.153Z,7.40
2022-11-22T02:29:49.064Z,7.68
2022-11-22T02:34:51.515Z,8.32
2022-11-22T02:39:58.768Z,7.40
2022-11-22T02:45:00.667Z,7.05
2022-11-22T02:50:02.533Z,7.18
2022-11-22T02:55:04.803Z,8.20
2022-11-22T03:00:07.500Z,8.00
2022-11-22T03:05:12.496Z,7.22
2022-11-22T03:10:14.695Z,7.40
2022-11-22T03:15:16.476Z,7.07
2022-11-22T03:20:18.630Z,7.05
2022-11-22T03:25:20.763Z,7.05
2022-11-22T03:30:23.180Z,7.78
2022-11-22T03:35:25.075Z,7.75
2022-11-22T03:40:26.862Z,7.63
2022-11-22T03:45:29.459Z,7.78
2022-11-22T03:50:31.706Z,7.38
2022-11-22T03:55:33.939Z,7.72
2022-11-22T04:00:36.138Z,8.35
2022-11-22T04:05:37.955Z,7.63
2022-11-22T04:10:39.662Z,7.13
2022-11-22T04:15:41.520Z,7.65
2022-11-22T04:21:02.024Z,7.22
2022-11-22T04:26:03.784Z,7.57
2022-11-22T04:31:23.997Z,6.53
2022-11-22T04:36:25.798Z,7.80
2022-11-22T04:41:27.626Z,6.50
2022-11-22T04:46:31.546Z,6.45
2022-11-22T04:51:51.669Z,7.38
2022-11-22T04:56:53.549Z,7.45
2022-11-22T05:01:55.540Z,6.90
2022-11-22T05:06:57.416Z,7.75
2022-11-22T05:11:59.509Z,7.35
2022-11-22T05:17:01.564Z,6.70
2022-11-22T05:22:03.421Z,6.90
2022-11-22T05:27:05.293Z,8.43
2022-11-22T05:32:07.069Z,7.45
2022-11-22T05:37:08.891Z,7.80
2022-11-22T05:42:10.860Z,6.38
2022-11-22T05:47:12.887Z,7.13
2022-11-22T05:52:14.863Z,6.50
2022-11-22T05:57:16.830Z,6.47
2022-11-22T06:02:18.940Z,6.80
2022-11-22T06:07:20.916Z,7.70
2022-11-22T06:12:23.245Z,6.75
2022-11-22T06:17:25.200Z,6.85
2022-11-22T06:22:27.656Z,7.85
2022-11-22T06:27:30.164Z,7.65
2022-11-22T06:32:35.282Z,7.05
2022-11-22T06:37:37.226Z,7.13
2022-11-22T06:42:39.098Z,7.75
2022-11-22T06:47:41.243Z,7.63
2022-11-22T06:52:43.398Z,7.80
2022-11-22T06:57:50.937Z,8.18
2022-11-22T07:02:53.453Z,7.72
2022-11-22T07:08:04.610Z,7.93
2022-11-22T07:13:09.526Z,7.13
2022-11-22T07:18:11.789Z,8.38
2022-11-22T07:23:15.850Z,8.20
2022-11-22T07:28:17.783Z,9.68
2022-11-22T07:33:20.042Z,9.38
2022-11-22T07:38:22.068Z,9.27
2022-11-22T07:43:25.186Z,8.40
2022-11-22T07:48:27.365Z,8.18
2022-11-22T07:53:30.391Z,8.40
2022-11-22T07:58:34.273Z,8.90
2022-11-22T08:03:36.996Z,7.95
2022-11-22T08:08:39.558Z,7.70
2022-11-22T08:13:41.527Z,8.50
2022-11-22T08:18:48.884Z,8.10
2022-11-22T08:23:50.721Z,6.50
2022-11-22T08:28:52.612Z,7.35
2022-11-22T08:33:54.470Z,8.38
2022-11-22T08:38:56.508Z,7.70
2022-11-22T08:43:58.461Z,7.68
2022-11-22T08:49:00.301Z,7.68
2022-11-22T08:54:02.109Z,7.55
2022-11-22T08:59:04.310Z,8.57
2022-11-22T09:04:06.211Z,9.85
2022-11-22T09:09:35.817Z,8.35
2022-11-22T09:14:29.867Z,8.55
2022-11-22T09:19:32.499Z,7.43
2022-11-22T09:24:34.754Z,6.85
2022-11-22T09:29:36.559Z,6.72
2022-11-22T09:34:38.446Z,6.65
2022-11-22T09:39:45.210Z,6.72
2022-11-22T09:45:20.806Z,6.15
2022-11-22T09:50:31.833Z,7.53
2022-11-22T09:55:49.106Z,6.35
2022-11-22T10:00:53.164Z,6.50
2022-11-22T10:06:05.945Z,6.30
2022-11-22T10:11:22.062Z,7.72
2022-11-22T10:16:36.258Z,6.50
2022-11-22T10:21:38.263Z,5.68
2022-11-22T10:26:40.824Z,7.00
2022-11-22T10:32:18.044Z,5.78
2022-11-22T10:37:25.613Z,5.97
2022-11-22T10:42:53.589Z,6.45
2022-11-22T10:48:01.287Z,6.53
2022-11-22T10:53:32.107Z,6.70
2022-11-22T10:58:58.366Z,6.82
2022-11-22T11:04:03.029Z,6.93
2022-11-22T11:14:52.581Z,7.70
2022-11-22T11:25:43.483Z,6.38
2022-11-22T11:30:47.377Z,6.78
2022-11-22T11:35:52.391Z,7.03
2022-11-22T11:40:54.950Z,6.63
2022-11-22T11:46:19.643Z,7.75
2022-11-22T11:51:50.859Z,8.25
2022-11-22T11:56:58.786Z,10.40
2022-11-22T12:02:09.534Z,10.07
2022-11-22T12:07:27.230Z,7.47
2022-11-22T12:12:51.507Z,7.80
2022-11-22T12:18:00.385Z,7.60
2022-11-22T12:23:32.538Z,8.25
2022-11-22T12:28:34.586Z,9.18
2022-11-22T12:34:08.093Z,8.80
2022-11-22T12:39:15.710Z,8.45
2022-11-22T12:44:21.009Z,9.27
2022-11-22T12:49:38.982Z,8.05
2022-11-22T12:54:53.631Z,7.22
2022-11-22T13:00:14.414Z,7.50
2022-11-22T13:05:24.474Z,7.28
2022-11-22T13:10:40.412Z,8.70
2022-11-22T13:15:45.208Z,6.90
2022-11-22T13:21:33.065Z,7.10
2022-11-22T13:32:07.032Z,6.55
2022-11-22T13:37:17.865Z,6.25
2022-11-22T13:42:27.594Z,4.47
2022-11-22T13:47:42.891Z,6.72
2022-11-22T13:52:53.837Z,6.15
2022-11-22T13:57:55.888Z,5.95
2022-11-22T14:03:16.171Z,6.55
2022-11-22T14:08:33.513Z,6.65
2022-11-22T14:13:57.339Z,7.23
2022-11-22T14:19:32.002Z,6.65
2022-11-22T14:25:16.131Z,6.38
2022-11-22T14:30:19.537Z,6.90
2022-11-22T14:35:30.022Z,5.75
2022-11-22T14:40:40.592Z,6.38
2022-11-22T14:45:55.572Z,6.82
2022-11-22T14:51:30.748Z,7.28
2022-11-22T14:56:37.705Z,7.55
2022-11-22T15:01:52.507Z,6.25
2022-11-22T15:09:24.044Z,8.38
2022-11-22T15:12:41.711Z,10.02
2022-11-22T16:01:57.769Z,7.82
2022-11-22T16:07:02.892Z,6.88
2022-11-22T16:12:24.148Z,6.85
2022-11-22T16:17:33.291Z,8.07
2022-11-22T16:22:35.232Z,7.40
2022-11-22T16:27:45.289Z,7.13
2022-11-22T16:32:53.963Z,15.43
2022-11-22T16:37:56.110Z,14.35
2022-11-22T16:42:58.002Z,18.33
2022-11-22T16:48:24.574Z,8.95
2022-11-22T16:53:22.078Z,8.18
2022-11-22T16:58:23.944Z,16.08
2022-11-22T17:03:29.858Z,18.58
2022-11-22T17:08:31.784Z,12.93
2022-11-22T17:13:33.745Z,12.23
2022-11-22T17:18:35.555Z,10.90
2022-11-22T17:23:39.197Z,11.95
2022-11-22T17:28:41.613Z,9.43
2022-11-22T17:33:43.950Z,8.02
2022-11-22T17:38:45.962Z,7.25
2022-11-22T17:43:48.016Z,8.93
2022-11-22T17:48:53.106Z,7.25
2022-11-22T17:53:55.785Z,7.28
2022-11-22T17:58:57.588Z,7.32
2022-11-22T18:03:59.560Z,9.02
2022-11-22T18:09:01.609Z,9.70
2022-11-22T18:14:04.644Z,8.70
2022-11-22T18:19:06.923Z,7.25
2022-11-22T18:24:09.326Z,9.77
2022-11-22T18:34:35.737Z,8.57
2022-11-22T18:39:39.886Z,8.02
2022-11-22T18:44:43.282Z,8.23
2022-11-22T18:49:45.685Z,9.30
2022-11-22T18:54:48.581Z,6.55
2022-11-22T18:59:50.772Z,11.07
2022-11-22T19:04:54.239Z,9.02
2022-11-22T19:09:57.376Z,10.50
2022-11-22T19:14:59.323Z,11.73
2022-11-22T19:20:01.082Z,8.52
2022-11-22T19:25:03.021Z,9.00
2022-11-22T19:30:05.531Z,6.97
2022-11-22T19:35:08.381Z,6.63
2022-11-22T19:40:11.177Z,5.45
2022-11-22T19:45:13.008Z,7.30
2022-11-22T19:50:14.764Z,7.22
2022-11-22T19:55:16.667Z,6.22
2022-11-22T20:00:18.530Z,7.78
2022-11-22T20:05:20.538Z,6.00
2022-11-22T20:10:22.787Z,7.18
2022-11-22T20:15:25.594Z,10.85
2022-11-22T20:20:27.514Z,7.85
2022-11-22T20:25:29.286Z,5.80
2022-11-22T20:30:31.072Z,5.72
2022-11-22T20:35:32.949Z,6.60
2022-11-22T20:40:34.728Z,6.63
2022-11-22T20:45:36.824Z,5.50
2022-11-22T20:50:38.610Z,4.47
2022-11-22T20:55:40.492Z,6.15
2022-11-22T21:00:44.808Z,5.15
2022-11-22T21:05:50.430Z,6.05
2022-11-22T21:10:52.279Z,5.40
2022-11-22T21:16:08.772Z,5.65
2022-11-22T21:21:25.092Z,6.28
2022-11-22T21:26:27.601Z,5.45
2022-11-22T21:31:29.397Z,5.38
2022-11-22T21:36:31.207Z,5.60
2022-11-22T21:41:41.229Z,6.32
2022-11-22T21:46:44.011Z,7.10
2022-11-22T21:51:45.905Z,6.30
2022-11-22T21:56:48.111Z,5.75
2022-11-22T22:01:49.900Z,5.38
2022-11-22T22:06:51.867Z,4.75
2022-11-22T22:11:53.570Z,5.72
2022-11-22T22:16:55.399Z,4.50
2022-11-22T22:21:57.163Z,5.70
2022-11-22T22:26:58.973Z,4.82
2022-11-22T22:32:00.798Z,5.32
2022-11-22T22:37:02.758Z,5.55
2022-11-22T22:42:04.675Z,5.47
2022-11-22T22:47:06.872Z,5.55
2022-11-22T22:52:08.717Z,5.45
2022-11-22T22:57:10.596Z,4.78
2022-11-22T23:02:12.417Z,6.20
2022-11-22T23:07:14.261Z,4.90
2022-11-22T23:12:16.046Z,5.80
2022-11-22T23:17:20.698Z,5.05
2022-11-22T23:22:25.908Z,5.45
2022-11-22T23:27:28.448Z,5.07
2022-11-22T23:32:33.079Z,4.47
2022-11-22T23:37:37.940Z,4.50
2022-11-22T23:42:39.739Z,4.82
2022-11-22T23:47:41.522Z,4.80
2022-11-22T23:52:43.405Z,4.13
2022-11-22T23:57:45.225Z,4.75
